sensor_id;sensor_type;location;lat;lon;timestamp;pressure;altitude;pressure_sealevel;temperature;humidity
37848;BME280;23688;33.130;-117.188;2023-04-08T00:00:22;99540.78;;;19.18;42.66
37848;BME280;23688;33.130;-117.188;2023-04-08T00:02:49;99552.28;;;19.30;41.72
37848;BME280;23688;33.130;-117.188;2023-04-08T00:05:16;99554.03;;;19.29;44.55
37848;BME280;23688;33.130;-117.188;2023-04-08T00:07:42;99547.13;;;19.46;42.77
37848;BME280;23688;33.130;-117.188;2023-04-08T00:10:09;99558.72;;;19.72;43.48
37848;BME280;23688;33.130;-117.188;2023-04-08T00:12:36;99536.59;;;19.48;43.00
37848;BME280;23688;33.130;-117.188;2023-04-08T00:15:03;99565.59;;;19.53;42.44
37848;BME280;23688;33.130;-117.188;2023-04-08T00:17:29;99557.66;;;19.43;40.27
37848;BME280;23688;33.130;-117.188;2023-04-08T00:19:56;99564.69;;;19.49;41.94
37848;BME280;23688;33.130;-117.188;2023-04-08T00:22:22;99546.38;;;19.66;42.33
37848;BME280;23688;33.130;-117.188;2023-04-08T00:24:50;99550.66;;;19.50;37.76
37848;BME280;23688;33.130;-117.188;2023-04-08T00:27:17;99554.16;;;19.49;38.94
37848;BME280;23688;33.130;-117.188;2023-04-08T00:29:46;99551.59;;;19.61;41.08
37848;BME280;23688;33.130;-117.188;2023-04-08T00:32:14;99541.94;;;19.60;41.14
37848;BME280;23688;33.130;-117.188;2023-04-08T00:34:40;99562.84;;;19.36;41.44
37848;BME280;23688;33.130;-117.188;2023-04-08T00:37:06;99571.44;;;19.10;42.39
37848;BME280;23688;33.130;-117.188;2023-04-08T00:39:33;99560.72;;;18.89;42.38
37848;BME280;23688;33.130;-117.188;2023-04-08T00:41:59;99557.88;;;18.70;44.58
37848;BME280;23688;33.130;-117.188;2023-04-08T00:44:26;99564.16;;;18.78;45.46
37848;BME280;23688;33.130;-117.188;2023-04-08T00:46:53;99566.59;;;18.65;46.41
37848;BME280;23688;33.130;-117.188;2023-04-08T00:49:19;99554.34;;;18.64;47.09
37848;BME280;23688;33.130;-117.188;2023-04-08T00:51:46;99565.63;;;18.53;48.25
37848;BME280;23688;33.130;-117.188;2023-04-08T00:54:12;99572.72;;;17.87;52.54
37848;BME280;23688;33.130;-117.188;2023-04-08T00:56:39;99564.41;;;17.57;51.12
37848;BME280;23688;33.130;-117.188;2023-04-08T00:59:05;99574.16;;;17.64;54.41
37848;BME280;23688;33.130;-117.188;2023-04-08T01:09:48;99580.75;;;16.84;62.35
37848;BME280;23688;33.130;-117.188;2023-04-08T01:12:40;99585.09;;;16.82;63.75
37848;BME280;23688;33.130;-117.188;2023-04-08T01:15:08;99583.03;;;16.67;66.02
37848;BME280;23688;33.130;-117.188;2023-04-08T01:17:37;99592.78;;;16.29;69.41
37848;BME280;23688;33.130;-117.188;2023-04-08T01:20:05;99584.44;;;16.02;70.74
37848;BME280;23688;33.130;-117.188;2023-04-08T01:22:51;99599.50;;;15.73;73.47
37848;BME280;23688;33.130;-117.188;2023-04-08T01:25:35;99596.88;;;15.73;74.36
37848;BME280;23688;33.130;-117.188;2023-04-08T01:28:07;99588.34;;;15.44;76.36
37848;BME280;23688;33.130;-117.188;2023-04-08T01:30:37;99583.06;;;15.43;78.29
37848;BME280;23688;33.130;-117.188;2023-04-08T01:33:05;99588.34;;;15.46;76.94
37848;BME280;23688;33.130;-117.188;2023-04-08T01:35:32;99585.34;;;15.27;78.62
37848;BME280;23688;33.130;-117.188;2023-04-08T01:37:59;99577.91;;;15.09;79.69
37848;BME280;23688;33.130;-117.188;2023-04-08T01:40:29;99585.81;;;15.11;79.80
37848;BME280;23688;33.130;-117.188;2023-04-08T01:42:58;99579.75;;;15.13;80.77
37848;BME280;23688;33.130;-117.188;2023-04-08T01:45:27;99589.19;;;15.07;80.94
37848;BME280;23688;33.130;-117.188;2023-04-08T01:47:54;99593.50;;;15.05;81.20
37848;BME280;23688;33.130;-117.188;2023-04-08T01:50:24;99597.75;;;15.01;80.22
37848;BME280;23688;33.130;-117.188;2023-04-08T01:52:52;99593.19;;;14.92;81.51
37848;BME280;23688;33.130;-117.188;2023-04-08T01:55:23;99592.34;;;14.93;80.79
37848;BME280;23688;33.130;-117.188;2023-04-08T01:57:51;99586.44;;;15.01;79.56
37848;BME280;23688;33.130;-117.188;2023-04-08T02:00:23;99595.50;;;15.15;79.73
37848;BME280;23688;33.130;-117.188;2023-04-08T02:02:50;99606.94;;;15.20;79.14
37848;BME280;23688;33.130;-117.188;2023-04-08T02:05:20;99610.38;;;15.17;78.88
37848;BME280;23688;33.130;-117.188;2023-04-08T02:07:46;99610.88;;;15.03;79.98
37848;BME280;23688;33.130;-117.188;2023-04-08T02:10:15;99603.00;;;15.01;79.90
37848;BME280;23688;33.130;-117.188;2023-04-08T02:12:42;99611.69;;;15.00;78.87
37848;BME280;23688;33.130;-117.188;2023-04-08T02:15:10;99613.50;;;15.03;78.84
37848;BME280;23688;33.130;-117.188;2023-04-08T02:18:38;99614.63;;;15.12;80.17
37848;BME280;23688;33.130;-117.188;2023-04-08T02:20:43;99606.53;;;15.03;79.30
37848;BME280;23688;33.130;-117.188;2023-04-08T02:25:44;99608.03;;;14.93;80.51
37848;BME280;23688;33.130;-117.188;2023-04-08T02:28:13;99600.94;;;14.89;79.62
37848;BME280;23688;33.130;-117.188;2023-04-08T02:30:42;99600.19;;;14.93;79.68
37848;BME280;23688;33.130;-117.188;2023-04-08T02:33:10;99600.31;;;14.99;81.66
37848;BME280;23688;33.130;-117.188;2023-04-08T02:35:38;99593.41;;;15.02;82.63
37848;BME280;23688;33.130;-117.188;2023-04-08T02:38:05;99597.88;;;15.06;83.13
37848;BME280;23688;33.130;-117.188;2023-04-08T02:40:32;99589.16;;;15.05;83.47
37848;BME280;23688;33.130;-117.188;2023-04-08T02:43:00;99583.94;;;15.05;83.80
37848;BME280;23688;33.130;-117.188;2023-04-08T02:45:29;99593.69;;;15.12;83.76
37848;BME280;23688;33.130;-117.188;2023-04-08T02:47:58;99595.44;;;15.12;83.60
37848;BME280;23688;33.130;-117.188;2023-04-08T02:50:25;99604.09;;;15.11;83.66
37848;BME280;23688;33.130;-117.188;2023-04-08T02:52:52;99603.09;;;15.06;84.18
37848;BME280;23688;33.130;-117.188;2023-04-08T02:55:18;99607.47;;;15.05;84.81
37848;BME280;23688;33.130;-117.188;2023-04-08T02:57:46;99588.72;;;14.88;84.99
37848;BME280;23688;33.130;-117.188;2023-04-08T03:00:14;99599.81;;;14.78;84.49
37848;BME280;23688;33.130;-117.188;2023-04-08T03:02:40;99591.66;;;14.66;84.04
37848;BME280;23688;33.130;-117.188;2023-04-08T03:05:07;99610.84;;;14.68;84.55
37848;BME280;23688;33.130;-117.188;2023-04-08T03:07:34;99610.75;;;14.65;84.80
37848;BME280;23688;33.130;-117.188;2023-04-08T03:10:01;99601.78;;;14.55;84.83
37848;BME280;23688;33.130;-117.188;2023-04-08T03:12:27;99610.63;;;14.59;84.90
37848;BME280;23688;33.130;-117.188;2023-04-08T03:14:54;99616.59;;;14.54;84.78
37848;BME280;23688;33.130;-117.188;2023-04-08T03:17:22;99610.19;;;14.45;84.70
37848;BME280;23688;33.130;-117.188;2023-04-08T03:19:49;99608.91;;;14.30;84.30
37848;BME280;23688;33.130;-117.188;2023-04-08T03:22:15;99616.53;;;14.23;83.65
37848;BME280;23688;33.130;-117.188;2023-04-08T03:24:42;99612.84;;;14.15;83.46
37848;BME280;23688;33.130;-117.188;2023-04-08T03:27:08;99623.16;;;14.11;83.50
37848;BME280;23688;33.130;-117.188;2023-04-08T03:29:35;99620.41;;;14.05;84.33
37848;BME280;23688;33.130;-117.188;2023-04-08T03:32:02;99633.00;;;13.90;84.11
37848;BME280;23688;33.130;-117.188;2023-04-08T03:34:29;99639.41;;;13.73;83.87
37848;BME280;23688;33.130;-117.188;2023-04-08T03:36:56;99640.84;;;13.63;83.23
37848;BME280;23688;33.130;-117.188;2023-04-08T03:39:22;99652.53;;;13.47;83.38
37848;BME280;23688;33.130;-117.188;2023-04-08T03:41:48;99656.91;;;13.48;84.85
37848;BME280;23688;33.130;-117.188;2023-04-08T03:44:17;99654.00;;;13.39;85.02
37848;BME280;23688;33.130;-117.188;2023-04-08T03:46:43;99665.72;;;13.52;86.84
37848;BME280;23688;33.130;-117.188;2023-04-08T03:49:11;99673.41;;;13.47;87.28
37848;BME280;23688;33.130;-117.188;2023-04-08T03:51:37;99661.97;;;13.43;89.00
37848;BME280;23688;33.130;-117.188;2023-04-08T03:54:04;99667.44;;;13.51;91.15
37848;BME280;23688;33.130;-117.188;2023-04-08T03:56:30;99673.78;;;13.59;91.76
37848;BME280;23688;33.130;-117.188;2023-04-08T03:58:59;99667.69;;;13.59;92.54
37848;BME280;23688;33.130;-117.188;2023-04-08T04:01:25;99666.81;;;13.58;93.34
37848;BME280;23688;33.130;-117.188;2023-04-08T04:03:52;99677.97;;;13.54;91.50
37848;BME280;23688;33.130;-117.188;2023-04-08T04:06:18;99688.81;;;13.41;90.26
37848;BME280;23688;33.130;-117.188;2023-04-08T04:08:44;99681.50;;;13.29;89.65
37848;BME280;23688;33.130;-117.188;2023-04-08T04:11:11;99705.16;;;13.35;90.10
37848;BME280;23688;33.130;-117.188;2023-04-08T04:13:37;99695.59;;;13.34;90.37
37848;BME280;23688;33.130;-117.188;2023-04-08T04:16:04;99712.94;;;13.34;90.19
37848;BME280;23688;33.130;-117.188;2023-04-08T04:18:30;99711.94;;;13.30;90.35
37848;BME280;23688;33.130;-117.188;2023-04-08T04:21:00;99704.78;;;13.24;87.92
37848;BME280;23688;33.130;-117.188;2023-04-08T04:23:26;99693.03;;;13.12;87.46
37848;BME280;23688;33.130;-117.188;2023-04-08T04:25:53;99687.53;;;13.02;87.15
37848;BME280;23688;33.130;-117.188;2023-04-08T04:28:19;99680.19;;;12.92;85.70
37848;BME280;23688;33.130;-117.188;2023-04-08T04:30:46;99688.59;;;12.83;85.49
37848;BME280;23688;33.130;-117.188;2023-04-08T04:33:12;99698.91;;;12.80;85.42
37848;BME280;23688;33.130;-117.188;2023-04-08T04:35:39;99694.19;;;12.70;85.09
37848;BME280;23688;33.130;-117.188;2023-04-08T04:38:05;99691.13;;;12.58;85.93
37848;BME280;23688;33.130;-117.188;2023-04-08T04:40:36;99691.03;;;12.55;86.86
37848;BME280;23688;33.130;-117.188;2023-04-08T04:43:02;99703.25;;;12.56;87.51
37848;BME280;23688;33.130;-117.188;2023-04-08T04:45:28;99699.34;;;12.45;87.17
37848;BME280;23688;33.130;-117.188;2023-04-08T04:47:55;99717.66;;;12.46;87.25
37848;BME280;23688;33.130;-117.188;2023-04-08T04:50:21;99716.03;;;12.50;88.30
37848;BME280;23688;33.130;-117.188;2023-04-08T04:52:47;99721.41;;;12.54;89.54
37848;BME280;23688;33.130;-117.188;2023-04-08T04:55:14;99725.84;;;12.57;90.52
37848;BME280;23688;33.130;-117.188;2023-04-08T04:57:40;99727.38;;;12.52;88.00
37848;BME280;23688;33.130;-117.188;2023-04-08T05:00:10;99732.34;;;12.46;86.69
37848;BME280;23688;33.130;-117.188;2023-04-08T05:02:36;99727.81;;;12.40;87.23
37848;BME280;23688;33.130;-117.188;2023-04-08T05:05:03;99729.56;;;12.41;87.26
37848;BME280;23688;33.130;-117.188;2023-04-08T05:07:29;99717.13;;;12.32;85.20
37848;BME280;23688;33.130;-117.188;2023-04-08T05:09:56;99724.56;;;12.23;85.16
37848;BME280;23688;33.130;-117.188;2023-04-08T05:12:23;99724.09;;;12.11;85.56
37848;BME280;23688;33.130;-117.188;2023-04-08T05:14:49;99727.19;;;12.01;86.85
37848;BME280;23688;33.130;-117.188;2023-04-08T05:17:17;99729.34;;;11.90;87.79
37848;BME280;23688;33.130;-117.188;2023-04-08T05:19:44;99733.41;;;11.83;88.63
37848;BME280;23688;33.130;-117.188;2023-04-08T05:22:11;99748.25;;;11.86;91.77
37848;BME280;23688;33.130;-117.188;2023-04-08T05:24:37;99753.25;;;11.81;92.22
37848;BME280;23688;33.130;-117.188;2023-04-08T05:27:03;99766.19;;;11.79;92.59
37848;BME280;23688;33.130;-117.188;2023-04-08T05:29:30;99764.94;;;11.91;95.03
37848;BME280;23688;33.130;-117.188;2023-04-08T05:31:56;99766.97;;;11.98;95.44
37848;BME280;23688;33.130;-117.188;2023-04-08T05:34:22;99767.75;;;11.95;94.26
37848;BME280;23688;33.130;-117.188;2023-04-08T05:36:49;99760.56;;;11.90;94.57
37848;BME280;23688;33.130;-117.188;2023-04-08T05:39:19;99755.75;;;11.78;94.51
37848;BME280;23688;33.130;-117.188;2023-04-08T05:41:45;99755.59;;;11.75;95.95
37848;BME280;23688;33.130;-117.188;2023-04-08T05:44:12;99757.84;;;11.66;96.90
37848;BME280;23688;33.130;-117.188;2023-04-08T05:46:40;99759.50;;;11.64;98.94
37848;BME280;23688;33.130;-117.188;2023-04-08T05:49:06;99745.25;;;11.55;100.00
37848;BME280;23688;33.130;-117.188;2023-04-08T05:51:33;99753.25;;;11.60;100.00
37848;BME280;23688;33.130;-117.188;2023-04-08T05:53:59;99753.13;;;11.57;100.00
37848;BME280;23688;33.130;-117.188;2023-04-08T05:56:25;99744.19;;;11.50;100.00
37848;BME280;23688;33.130;-117.188;2023-04-08T05:58:52;99748.69;;;11.54;100.00
37848;BME280;23688;33.130;-117.188;2023-04-08T06:01:18;99753.31;;;11.62;100.00
37848;BME280;23688;33.130;-117.188;2023-04-08T06:03:44;99753.44;;;11.65;100.00
37848;BME280;23688;33.130;-117.188;2023-04-08T06:06:11;99754.47;;;11.68;100.00
37848;BME280;23688;33.130;-117.188;2023-04-08T06:08:37;99756.31;;;11.71;100.00
37848;BME280;23688;33.130;-117.188;2023-04-08T06:11:04;99741.50;;;11.70;100.00
37848;BME280;23688;33.130;-117.188;2023-04-08T06:13:31;99753.44;;;11.65;100.00
37848;BME280;23688;33.130;-117.188;2023-04-08T06:15:57;99731.19;;;11.50;100.00
37848;BME280;23688;33.130;-117.188;2023-04-08T06:18:24;99751.41;;;11.57;100.00
37848;BME280;23688;33.130;-117.188;2023-04-08T06:20:50;99744.56;;;11.60;100.00
37848;BME280;23688;33.130;-117.188;2023-04-08T06:23:17;99742.81;;;11.59;100.00
37848;BME280;23688;33.130;-117.188;2023-04-08T06:25:43;99741.13;;;11.61;100.00
37848;BME280;23688;33.130;-117.188;2023-04-08T06:28:09;99734.28;;;11.63;100.00
37848;BME280;23688;33.130;-117.188;2023-04-08T06:30:36;99731.75;;;11.64;100.00
37848;BME280;23688;33.130;-117.188;2023-04-08T06:33:02;99736.88;;;11.63;100.00
37848;BME280;23688;33.130;-117.188;2023-04-08T06:35:28;99732.25;;;11.55;100.00
37848;BME280;23688;33.130;-117.188;2023-04-08T06:37:54;99750.72;;;11.62;100.00
37848;BME280;23688;33.130;-117.188;2023-04-08T06:40:21;99762.00;;;11.62;99.96
37848;BME280;23688;33.130;-117.188;2023-04-08T06:42:47;99767.22;;;11.62;99.80
37848;BME280;23688;33.130;-117.188;2023-04-08T06:45:13;99769.13;;;11.66;99.72
37848;BME280;23688;33.130;-117.188;2023-04-08T06:47:40;99771.84;;;11.69;99.37
37848;BME280;23688;33.130;-117.188;2023-04-08T06:50:06;99768.56;;;11.73;99.41
37848;BME280;23688;33.130;-117.188;2023-04-08T06:52:33;99760.78;;;11.75;99.03
37848;BME280;23688;33.130;-117.188;2023-04-08T06:54:59;99757.38;;;11.76;98.92
37848;BME280;23688;33.130;-117.188;2023-04-08T06:57:25;99757.88;;;11.67;98.54
37848;BME280;23688;33.130;-117.188;2023-04-08T06:59:52;99776.16;;;11.69;98.72
37848;BME280;23688;33.130;-117.188;2023-04-08T07:02:18;99773.06;;;11.56;98.40
37848;BME280;23688;33.130;-117.188;2023-04-08T07:04:44;99764.03;;;11.48;98.44
37848;BME280;23688;33.130;-117.188;2023-04-08T07:07:11;99769.50;;;11.54;98.89
37848;BME280;23688;33.130;-117.188;2023-04-08T07:09:37;99763.16;;;11.48;98.85
37848;BME280;23688;33.130;-117.188;2023-04-08T07:12:04;99749.84;;;11.40;98.30
37848;BME280;23688;33.130;-117.188;2023-04-08T07:14:31;99759.28;;;11.38;98.90
37848;BME280;23688;33.130;-117.188;2023-04-08T07:16:57;99769.00;;;11.42;99.10
37848;BME280;23688;33.130;-117.188;2023-04-08T07:19:23;99764.47;;;11.38;99.73
37848;BME280;23688;33.130;-117.188;2023-04-08T07:21:50;99767.16;;;11.40;100.00
37848;BME280;23688;33.130;-117.188;2023-04-08T07:24:17;99769.00;;;11.42;100.00
37848;BME280;23688;33.130;-117.188;2023-04-08T07:26:44;99767.91;;;11.37;100.00
37848;BME280;23688;33.130;-117.188;2023-04-08T07:29:10;99767.06;;;11.38;100.00
37848;BME280;23688;33.130;-117.188;2023-04-08T07:31:36;99769.09;;;11.45;100.00
37848;BME280;23688;33.130;-117.188;2023-04-08T07:34:02;99766.63;;;11.48;100.00
37848;BME280;23688;33.130;-117.188;2023-04-08T07:36:29;99766.06;;;11.55;100.00
37848;BME280;23688;33.130;-117.188;2023-04-08T07:38:55;99760.09;;;11.58;100.00
37848;BME280;23688;33.130;-117.188;2023-04-08T07:41:21;99763.72;;;11.62;100.00
37848;BME280;23688;33.130;-117.188;2023-04-08T07:43:48;99772.34;;;11.61;100.00
37848;BME280;23688;33.130;-117.188;2023-04-08T07:46:14;99767.03;;;11.57;100.00
37848;BME280;23688;33.130;-117.188;2023-04-08T07:48:40;99766.91;;;11.54;100.00
37848;BME280;23688;33.130;-117.188;2023-04-08T07:51:08;99770.47;;;11.56;100.00
37848;BME280;23688;33.130;-117.188;2023-04-08T07:53:34;99766.63;;;11.48;100.00
37848;BME280;23688;33.130;-117.188;2023-04-08T07:56:01;99778.94;;;11.52;100.00
37848;BME280;23688;33.130;-117.188;2023-04-08T07:58:30;99767.47;;;11.47;100.00
37848;BME280;23688;33.130;-117.188;2023-04-08T08:00:56;99772.59;;;11.46;100.00
37848;BME280;23688;33.130;-117.188;2023-04-08T08:03:23;99751.34;;;11.35;100.00
37848;BME280;23688;33.130;-117.188;2023-04-08T08:05:50;99758.28;;;11.34;100.00
37848;BME280;23688;33.130;-117.188;2023-04-08T08:08:17;99758.94;;;11.30;100.00
37848;BME280;23688;33.130;-117.188;2023-04-08T08:10:43;99749.75;;;11.18;100.00
37848;BME280;23688;33.130;-117.188;2023-04-08T08:13:10;99755.75;;;11.17;100.00
37848;BME280;23688;33.130;-117.188;2023-04-08T08:15:39;99753.78;;;11.11;100.00
37848;BME280;23688;33.130;-117.188;2023-04-08T08:18:06;99753.47;;;11.03;100.00
37848;BME280;23688;33.130;-117.188;2023-04-08T08:20:34;99745.25;;;10.94;100.00
37848;BME280;23688;33.130;-117.188;2023-04-08T08:23:00;99759.28;;;10.98;100.00
37848;BME280;23688;33.130;-117.188;2023-04-08T08:25:27;99757.28;;;10.92;100.00
37848;BME280;23688;33.130;-117.188;2023-04-08T08:27:54;99753.59;;;10.87;100.00
37848;BME280;23688;33.130;-117.188;2023-04-08T08:30:21;99756.28;;;10.88;100.00
37848;BME280;23688;33.130;-117.188;2023-04-08T08:32:47;99769.34;;;10.90;100.00
37848;BME280;23688;33.130;-117.188;2023-04-08T08:35:15;99745.59;;;10.82;100.00
37848;BME280;23688;33.130;-117.188;2023-04-08T08:37:42;99761.25;;;10.84;100.00
37848;BME280;23688;33.130;-117.188;2023-04-08T08:40:08;99756.81;;;10.81;100.00
37848;BME280;23688;33.130;-117.188;2023-04-08T08:42:35;99751.63;;;10.81;100.00
37848;BME280;23688;33.130;-117.188;2023-04-08T08:45:02;99747.41;;;10.83;100.00
37848;BME280;23688;33.130;-117.188;2023-04-08T08:47:29;99749.13;;;10.83;100.00
37848;BME280;23688;33.130;-117.188;2023-04-08T08:49:56;99743.00;;;10.82;100.00
37848;BME280;23688;33.130;-117.188;2023-04-08T08:52:23;99727.50;;;10.84;100.00
37848;BME280;23688;33.130;-117.188;2023-04-08T08:54:57;99729.56;;;10.91;100.00
37848;BME280;23688;33.130;-117.188;2023-04-08T08:57:24;99729.56;;;10.91;100.00
37848;BME280;23688;33.130;-117.188;2023-04-08T08:59:50;99731.72;;;11.01;100.00
37848;BME280;23688;33.130;-117.188;2023-04-08T09:02:28;99724.03;;;11.04;100.00
37848;BME280;23688;33.130;-117.188;2023-04-08T09:05:02;99717.84;;;11.01;100.00
37848;BME280;23688;33.130;-117.188;2023-04-08T09:07:31;99709.94;;;10.98;100.00
37848;BME280;23688;33.130;-117.188;2023-04-08T09:10:00;99727.00;;;11.12;100.00
37848;BME280;23688;33.130;-117.188;2023-04-08T09:12:26;99726.28;;;11.16;100.00
37848;BME280;23688;33.130;-117.188;2023-04-08T09:15:06;99730.59;;;11.16;100.00
37848;BME280;23688;33.130;-117.188;2023-04-08T09:17:38;99730.59;;;11.16;100.00
37848;BME280;23688;33.130;-117.188;2023-04-08T09:20:05;99734.16;;;11.18;100.00
37848;BME280;23688;33.130;-117.188;2023-04-08T09:22:57;99725.41;;;11.16;100.00
37848;BME280;23688;33.130;-117.188;2023-04-08T09:25:25;99715.13;;;11.19;100.00
37848;BME280;23688;33.130;-117.188;2023-04-08T09:27:53;99706.22;;;11.12;100.00
37848;BME280;23688;33.130;-117.188;2023-04-08T09:30:24;99714.81;;;11.11;100.00
37848;BME280;23688;33.130;-117.188;2023-04-08T09:32:52;99697.94;;;11.01;100.00
37848;BME280;23688;33.130;-117.188;2023-04-08T09:35:19;99712.00;;;11.06;100.00
37848;BME280;23688;33.130;-117.188;2023-04-08T09:37:46;99713.44;;;11.00;100.00
37848;BME280;23688;33.130;-117.188;2023-04-08T09:40:14;99707.88;;;10.90;100.00
37848;BME280;23688;33.130;-117.188;2023-04-08T09:42:47;99707.00;;;10.90;100.00
37848;BME280;23688;33.130;-117.188;2023-04-08T09:45:17;99705.09;;;10.86;100.00
37848;BME280;23688;33.130;-117.188;2023-04-08T09:50:19;99691.63;;;10.75;100.00
37848;BME280;23688;33.130;-117.188;2023-04-08T09:52:51;99697.72;;;10.76;100.00
37848;BME280;23688;33.130;-117.188;2023-04-08T09:55:21;99691.50;;;10.72;100.00
37848;BME280;23688;33.130;-117.188;2023-04-08T09:57:58;99690.47;;;10.68;100.00
37848;BME280;23688;33.130;-117.188;2023-04-08T10:00:36;99681.53;;;10.62;100.00
37848;BME280;23688;33.130;-117.188;2023-04-08T10:05:37;99671.69;;;10.55;100.00
37848;BME280;23688;33.130;-117.188;2023-04-08T10:08:05;99683.16;;;10.60;100.00
37848;BME280;23688;33.130;-117.188;2023-04-08T10:10:33;99679.47;;;10.55;100.00
37848;BME280;23688;33.130;-117.188;2023-04-08T10:13:02;99669.56;;;10.46;100.00
37848;BME280;23688;33.130;-117.188;2023-04-08T10:15:31;99656.47;;;10.43;100.00
37848;BME280;23688;33.130;-117.188;2023-04-08T10:23:00;99679.28;;;10.50;100.00
37848;BME280;23688;33.130;-117.188;2023-04-08T10:25:34;99682.53;;;10.46;100.00
37848;BME280;23688;33.130;-117.188;2023-04-08T10:28:22;99675.50;;;10.43;100.00
37848;BME280;23688;33.130;-117.188;2023-04-08T10:33:15;99671.78;;;10.37;100.00
37848;BME280;23688;33.130;-117.188;2023-04-08T10:38:25;99665.16;;;10.25;100.00
37848;BME280;23688;33.130;-117.188;2023-04-08T10:40:53;99663.09;;;10.18;100.00
37848;BME280;23688;33.130;-117.188;2023-04-08T10:43:19;99657.56;;;10.11;100.00
37848;BME280;23688;33.130;-117.188;2023-04-08T10:45:46;99663.78;;;10.14;100.00
37848;BME280;23688;33.130;-117.188;2023-04-08T10:48:18;99670.81;;;10.17;100.00
37848;BME280;23688;33.130;-117.188;2023-04-08T10:50:51;99670.91;;;10.18;100.00
37848;BME280;23688;33.130;-117.188;2023-04-08T10:53:24;99678.53;;;10.15;100.00
37848;BME280;23688;33.130;-117.188;2023-04-08T10:55:51;99676.56;;;10.10;100.00
37848;BME280;23688;33.130;-117.188;2023-04-08T10:58:18;99667.88;;;10.09;100.00
37848;BME280;23688;33.130;-117.188;2023-04-08T11:00:45;99656.94;;;9.97;100.00
37848;BME280;23688;33.130;-117.188;2023-04-08T11:03:11;99655.69;;;9.89;100.00
37848;BME280;23688;33.130;-117.188;2023-04-08T11:05:38;99660.06;;;9.90;100.00
37848;BME280;23688;33.130;-117.188;2023-04-08T11:08:05;99668.06;;;9.94;100.00
37848;BME280;23688;33.130;-117.188;2023-04-08T11:10:37;99664.59;;;9.94;100.00
37848;BME280;23688;33.130;-117.188;2023-04-08T11:13:06;99670.72;;;9.96;100.00
37848;BME280;23688;33.130;-117.188;2023-04-08T11:15:35;99668.13;;;9.96;100.00
37848;BME280;23688;33.130;-117.188;2023-04-08T11:18:05;99655.84;;;9.92;100.00
37848;BME280;23688;33.130;-117.188;2023-04-08T11:20:32;99669.91;;;9.97;100.00
37848;BME280;23688;33.130;-117.188;2023-04-08T11:23:01;99659.19;;;9.89;100.00
37848;BME280;23688;33.130;-117.188;2023-04-08T11:25:28;99656.31;;;9.83;100.00
37848;BME280;23688;33.130;-117.188;2023-04-08T11:27:55;99671.91;;;9.84;100.00
37848;BME280;23688;33.130;-117.188;2023-04-08T11:30:22;99659.78;;;9.83;100.00
37848;BME280;23688;33.130;-117.188;2023-04-08T11:32:49;99658.97;;;9.84;100.00
37848;BME280;23688;33.130;-117.188;2023-04-08T11:35:16;99657.19;;;9.83;100.00
37848;BME280;23688;33.130;-117.188;2023-04-08T11:37:42;99650.22;;;9.82;100.00
37848;BME280;23688;33.130;-117.188;2023-04-08T11:40:10;99660.59;;;9.82;100.00
37848;BME280;23688;33.130;-117.188;2023-04-08T11:42:38;99640.75;;;9.65;100.00
37848;BME280;23688;33.130;-117.188;2023-04-08T11:45:12;99657.41;;;9.70;100.00
37848;BME280;23688;33.130;-117.188;2023-04-08T11:47:39;99664.44;;;9.73;100.00
37848;BME280;23688;33.130;-117.188;2023-04-08T11:50:08;99658.91;;;9.65;100.00
37848;BME280;23688;33.130;-117.188;2023-04-08T11:52:48;99652.34;;;9.54;100.00
37848;BME280;23688;33.130;-117.188;2023-04-08T11:55:27;99645.84;;;9.44;100.00
37848;BME280;23688;33.130;-117.188;2023-04-08T11:57:55;99654.50;;;9.45;100.00
37848;BME280;23688;33.130;-117.188;2023-04-08T12:00:22;99631.47;;;9.33;100.00
37848;BME280;23688;33.130;-117.188;2023-04-08T12:02:50;99643.75;;;9.37;100.00
37848;BME280;23688;33.130;-117.188;2023-04-08T12:05:19;99656.34;;;9.47;100.00
37848;BME280;23688;33.130;-117.188;2023-04-08T12:07:46;99663.22;;;9.47;100.00
37848;BME280;23688;33.130;-117.188;2023-04-08T12:10:13;99664.84;;;9.45;100.00
37848;BME280;23688;33.130;-117.188;2023-04-08T12:12:40;99663.06;;;9.43;100.00
37848;BME280;23688;33.130;-117.188;2023-04-08T12:15:07;99662.19;;;9.43;100.00
37848;BME280;23688;33.130;-117.188;2023-04-08T12:17:34;99667.81;;;9.34;100.00
37848;BME280;23688;33.130;-117.188;2023-04-08T12:20:00;99661.34;;;9.26;100.00
37848;BME280;23688;33.130;-117.188;2023-04-08T12:22:27;99673.28;;;9.23;100.00
37848;BME280;23688;33.130;-117.188;2023-04-08T12:24:53;99675.72;;;9.19;100.00
37848;BME280;23688;33.130;-117.188;2023-04-08T12:27:22;99672.22;;;9.19;100.00
37848;BME280;23688;33.130;-117.188;2023-04-08T12:29:48;99669.03;;;9.07;100.00
37848;BME280;23688;33.130;-117.188;2023-04-08T12:32:15;99668.41;;;8.94;100.00
37848;BME280;23688;33.130;-117.188;2023-04-08T12:34:41;99667.88;;;8.84;100.00
37848;BME280;23688;33.130;-117.188;2023-04-08T12:37:07;99677.59;;;8.88;100.00
37848;BME280;23688;33.130;-117.188;2023-04-08T12:39:34;99679.94;;;8.83;100.00
37848;BME280;23688;33.130;-117.188;2023-04-08T12:42:01;99687.03;;;8.87;100.00
37848;BME280;23688;33.130;-117.188;2023-04-08T12:44:27;99687.22;;;8.90;100.00
37848;BME280;23688;33.130;-117.188;2023-04-08T12:46:54;99689.88;;;8.92;100.00
37848;BME280;23688;33.130;-117.188;2023-04-08T12:49:20;99676.69;;;8.87;100.00
37848;BME280;23688;33.130;-117.188;2023-04-08T12:51:46;99681.06;;;8.88;100.00
37848;BME280;23688;33.130;-117.188;2023-04-08T12:54:12;99680.81;;;8.84;100.00
37848;BME280;23688;33.130;-117.188;2023-04-08T12:56:39;99687.47;;;8.78;100.00